American Duchess — WDJ2153 — position and weather

sailwx.info

Track history (hours):
 
Tides and Currents Weather Stations Pressure Air Temp Water Temp Dewpoint Dewpoint Depression Visibility Wind Speed Wind Dir Waves Ship Positions

American Duchess

Owner: American Duchess Inc., New Albany, IN. More information available from US FCC via Universal Licensing System and Coast Guard Vessel Documentation Center.

Last reported at 2018-Feb-01 02:31 UTC. Time now 2018-Feb-20 11:33 UTC.
Position N 32°00' W 091°05'.
Warning: this ship's position is 19 days out of date.

Length 104 m; draft 2.6 m.

Type: Passenger vessel. MMSI: 367755720.

Date/timePositionNaut miles runAvg speedWind from/ knotsBaromVisibWave heightAir tempDewpointWater temp
2018-Feb-01 02:31N 32°00' W 091°05'110.5
2018-Feb-01 02:24N 32°01' W 091°04'5 7.8
2018-Feb-01 01:45N 32°06' W 091°06'2 7.0
2018-Feb-01 01:31N 32°08' W 091°06'5 9.0
2018-Feb-01 01:01N 32°08' W 091°01'5 9.3
2018-Feb-01 00:30N 32°12' W 090°59'4 9.0
2018-Feb-01 00:00N 32°16' W 090°58'6 6.0
2018-Jan-31 22:58N 32°21' W 090°53'0 0.0
2018-Jan-31 22:28N 32°21' W 090°53'0 0.0
2018-Jan-31 20:58N 32°21' W 090°53'0 0.0
2018-Jan-31 20:28N 32°21' W 090°53'0 0.0
2018-Jan-31 19:58N 32°21' W 090°53'0 0.0
2018-Jan-31 19:28N 32°21' W 090°53'0 0.0
2018-Jan-31 18:58N 32°21' W 090°53'0 0.0
2018-Jan-31 18:28N 32°21' W 090°53'0 0.0
2018-Jan-31 17:58N 32°21' W 090°53'0 0.0
2018-Jan-31 17:28N 32°21' W 090°53'0 0.0
2018-Jan-31 16:58N 32°21' W 090°53'0 0.0
2018-Jan-31 16:28N 32°21' W 090°53'1 2.6
2018-Jan-31 16:00N 32°20' W 090°54'4 7.9
2018-Jan-31 15:30N 32°21' W 090°58'4 8.4
2018-Jan-31 15:00N 32°25' W 090°60'510.1
2018-Jan-31 14:30N 32°27' W 091°05'17 8.5
2018-Jan-31 12:33N 32°44' W 091°03'1 9.6
2018-Jan-31 12:28N 32°44' W 091°04'4 8.1
2018-Jan-31 12:00N 32°44' W 091°09'8 9.4
2018-Jan-31 11:08N 32°52' W 091°06'5 8.5
2018-Jan-31 10:35N 32°57' W 091°05'  
2018-Jan-27 01:35N 32°40' W 091°07'0 5.2
2018-Jan-27 01:30N 32°40' W 091°08'2 4.8
2018-Jan-27 01:00N 32°38' W 091°09'2 4.9
2018-Jan-27 00:31N 32°36' W 091°08'3 5.1
2018-Jan-27 00:01N 32°34' W 091°06'3 4.9
2018-Jan-26 23:27N 32°31' W 091°06'2 5.5
2018-Jan-26 23:01N 32°29' W 091°07'3 5.4
2018-Jan-26 22:30N 32°27' W 091°05'3 5.5
2018-Jan-26 22:00N 32°26' W 091°02'3 5.2
2018-Jan-26 21:31N 32°24' W 090°59'3 5.3
2018-Jan-26 21:01N 32°22' W 091°00'2 4.0
2018-Jan-26 20:30N 32°21' W 090°58'1 1.3
2018-Jan-26 20:00N 32°21' W 090°57'1 2.5
2018-Jan-26 19:31N 32°21' W 090°56'2 3.8
2018-Jan-26 19:00N 32°21' W 090°53'0 0.7
2018-Jan-26 18:29N 32°21' W 090°53'0 0.0
2018-Jan-26 17:59N 32°21' W 090°53'0 0.0
2018-Jan-26 17:29N 32°21' W 090°53'0 0.0
2018-Jan-26 16:59N 32°21' W 090°53'0 0.0
2018-Jan-26 16:29N 32°21' W 090°53'0 0.0
2018-Jan-26 15:59N 32°21' W 090°53'0 0.0
2018-Jan-26 15:29N 32°21' W 090°53'0 0.0
2018-Jan-26 14:59N 32°21' W 090°53'0 0.0
2018-Jan-26 14:29N 32°21' W 090°53'0 0.0
2018-Jan-26 14:00N 32°21' W 090°53'0 0.0
2018-Jan-26 13:30N 32°21' W 090°53'0 0.0
2018-Jan-26 13:00N 32°21' W 090°53'0 0.0
2018-Jan-26 12:30N 32°21' W 090°53'1 2.2
2018-Jan-26 12:00N 32°20' W 090°54'3 5.1
2018-Jan-26 11:30N 32°18' W 090°55'3 6.1
2018-Jan-26 11:00N 32°16' W 090°58'3 4.8
2018-Jan-26 10:27N 32°13' W 090°59'2 4.9
2018-Jan-26 10:00N 32°11' W 090°60'2 4.9
2018-Jan-26 09:30N 32°09' W 091°00'2 4.4
2018-Jan-26 09:00N 32°07' W 091°02'2 4.7
2018-Jan-26 08:30N 32°08' W 091°05'2 4.0
2018-Jan-26 08:00N 32°07' W 091°06'3 4.6
2018-Jan-26 07:23N 32°05' W 091°04'2 4.3
2018-Jan-26 06:59N 32°03' W 091°03'2 4.8
2018-Jan-26 06:30N 32°01' W 091°05'1 1.8
2018-Jan-26 06:00N 32°00' W 091°05'5 4.5
2018-Jan-26 04:51N 31°58' W 091°11'11 4.2
2018-Jan-26 02:11N 31°51' W 091°21'  
Track history (hours):
 
Tides and Currents Weather Stations Pressure Air Temp Water Temp Dewpoint Dewpoint Depression Visibility Wind Speed Wind Dir Waves Ship Positions

American Duchess

Owner: American Duchess Inc., New Albany, IN. More information available from US FCC via Universal Licensing System and Coast Guard Vessel Documentation Center.

Last reported at 2018-Feb-01 02:31 UTC. Time now 2018-Feb-20 11:33 UTC.
Position N 32°00' W 091°05'.
Warning: this ship's position is 19 days out of date.

Length 104 m; draft 2.6 m.

Type: Passenger vessel. MMSI: 367755720.

Date/timePositionNaut miles runAvg speedWind from/ knotsBaromVisibWave heightAir tempDewpointWater temp
2018-Feb-01 02:31N 32°00' W 091°05'110.5
2018-Feb-01 02:24N 32°01' W 091°04'5 7.8
2018-Feb-01 01:45N 32°06' W 091°06'2 7.0
2018-Feb-01 01:31N 32°08' W 091°06'5 9.0
2018-Feb-01 01:01N 32°08' W 091°01'5 9.3
2018-Feb-01 00:30N 32°12' W 090°59'4 9.0
2018-Feb-01 00:00N 32°16' W 090°58'6 6.0
2018-Jan-31 22:58N 32°21' W 090°53'0 0.0
2018-Jan-31 22:28N 32°21' W 090°53'0 0.0
2018-Jan-31 20:58N 32°21' W 090°53'0 0.0
2018-Jan-31 20:28N 32°21' W 090°53'0 0.0
2018-Jan-31 19:58N 32°21' W 090°53'0 0.0
2018-Jan-31 19:28N 32°21' W 090°53'0 0.0
2018-Jan-31 18:58N 32°21' W 090°53'0 0.0
2018-Jan-31 18:28N 32°21' W 090°53'0 0.0
2018-Jan-31 17:58N 32°21' W 090°53'0 0.0
2018-Jan-31 17:28N 32°21' W 090°53'0 0.0
2018-Jan-31 16:58N 32°21' W 090°53'0 0.0
2018-Jan-31 16:28N 32°21' W 090°53'1 2.6
2018-Jan-31 16:00N 32°20' W 090°54'4 7.9
2018-Jan-31 15:30N 32°21' W 090°58'4 8.4
2018-Jan-31 15:00N 32°25' W 090°60'510.1
2018-Jan-31 14:30N 32°27' W 091°05'17 8.5
2018-Jan-31 12:33N 32°44' W 091°03'1 9.6
2018-Jan-31 12:28N 32°44' W 091°04'4 8.1
2018-Jan-31 12:00N 32°44' W 091°09'8 9.4
2018-Jan-31 11:08N 32°52' W 091°06'5 8.5
2018-Jan-31 10:35N 32°57' W 091°05'  
2018-Jan-27 01:35N 32°40' W 091°07'0 5.2
2018-Jan-27 01:30N 32°40' W 091°08'2 4.8
2018-Jan-27 01:00N 32°38' W 091°09'2 4.9
2018-Jan-27 00:31N 32°36' W 091°08'3 5.1
2018-Jan-27 00:01N 32°34' W 091°06'3 4.9
2018-Jan-26 23:27N 32°31' W 091°06'2 5.5
2018-Jan-26 23:01N 32°29' W 091°07'3 5.4
2018-Jan-26 22:30N 32°27' W 091°05'3 5.5
2018-Jan-26 22:00N 32°26' W 091°02'3 5.2
2018-Jan-26 21:31N 32°24' W 090°59'3 5.3
2018-Jan-26 21:01N 32°22' W 091°00'2 4.0
2018-Jan-26 20:30N 32°21' W 090°58'1 1.3
2018-Jan-26 20:00N 32°21' W 090°57'1 2.5
2018-Jan-26 19:31N 32°21' W 090°56'2 3.8
2018-Jan-26 19:00N 32°21' W 090°53'0 0.7
2018-Jan-26 18:29N 32°21' W 090°53'0 0.0
2018-Jan-26 17:59N 32°21' W 090°53'0 0.0
2018-Jan-26 17:29N 32°21' W 090°53'0 0.0
2018-Jan-26 16:59N 32°21' W 090°53'0 0.0
2018-Jan-26 16:29N 32°21' W 090°53'0 0.0
2018-Jan-26 15:59N 32°21' W 090°53'0 0.0
2018-Jan-26 15:29N 32°21' W 090°53'0 0.0
2018-Jan-26 14:59N 32°21' W 090°53'0 0.0
2018-Jan-26 14:29N 32°21' W 090°53'0 0.0
2018-Jan-26 14:00N 32°21' W 090°53'0 0.0
2018-Jan-26 13:30N 32°21' W 090°53'0 0.0
2018-Jan-26 13:00N 32°21' W 090°53'0 0.0
2018-Jan-26 12:30N 32°21' W 090°53'1 2.2
2018-Jan-26 12:00N 32°20' W 090°54'3 5.1
2018-Jan-26 11:30N 32°18' W 090°55'3 6.1
2018-Jan-26 11:00N 32°16' W 090°58'3 4.8
2018-Jan-26 10:27N 32°13' W 090°59'2 4.9
2018-Jan-26 10:00N 32°11' W 090°60'2 4.9
2018-Jan-26 09:30N 32°09' W 091°00'2 4.4
2018-Jan-26 09:00N 32°07' W 091°02'2 4.7
2018-Jan-26 08:30N 32°08' W 091°05'2 4.0
2018-Jan-26 08:00N 32°07' W 091°06'3 4.6
2018-Jan-26 07:23N 32°05' W 091°04'2 4.3
2018-Jan-26 06:59N 32°03' W 091°03'2 4.8
2018-Jan-26 06:30N 32°01' W 091°05'1 1.8
2018-Jan-26 06:00N 32°00' W 091°05'5 4.5
2018-Jan-26 04:51N 31°58' W 091°11'11 4.2
2018-Jan-26 02:11N 31°51' W 091°21'  

Dump ship's entire track history